aviador You're here:

LSME Decoded Metar

EMMEN in SWITZERLAND
Report Time2018-05-25 19:50:00
UTC Time2018-05-25 20:49:48
Flight Rules vfr VFR
WindCalm
Visibility9999 m
Phenomena:N/A
Clouds:N/A
Expected CloudBase > 2,400 ft AGL from Temp-Dew spread
CeilingNone
Temp19°C (ISA +7)
Dew Point13°C (68% RH)
QNH1018 hPa
Density Alt2,231 ft
Elevation1,401 ft
Report Wrong Elevation
Raw Report
METAR LSME 251950Z AUTO 00000KT 9999NDV NCD 19/13 Q1018 RMK=

Extra information for LSME:More info

Metar Taf Metar & Taf Last 4 Metars F.Rules Stats Wind Profile Meteogram Temp Stats Airport Information Weather charts Add Link Nearby VenuesMetar ALERT Operation Metar Decoded Social comments